sensor_id;sensor_type;location;lat;lon;timestamp;pressure;altitude;pressure_sealevel;temperature;humidity
12963;BME280;6546;49.882;8.666;2022-08-20T00:02:09;99675.53;;;23.02;63.72
12963;BME280;6546;49.882;8.666;2022-08-20T00:04:36;99668.34;;;23.04;63.69
12963;BME280;6546;49.882;8.666;2022-08-20T00:07:03;99675.53;;;23.02;64.11
12963;BME280;6546;49.882;8.666;2022-08-20T00:09:31;99677.38;;;23.00;63.43
12963;BME280;6546;49.882;8.666;2022-08-20T00:11:59;99680.84;;;23.00;63.74
12963;BME280;6546;49.882;8.666;2022-08-20T00:14:25;99675.75;;;22.97;63.76
12963;BME280;6546;49.882;8.666;2022-08-20T00:16:52;99674.13;;;22.95;63.50
12963;BME280;6546;49.882;8.666;2022-08-20T00:19:19;99677.69;;;22.94;63.94
12963;BME280;6546;49.882;8.666;2022-08-20T00:21:47;99681.09;;;22.96;64.53
12963;BME280;6546;49.882;8.666;2022-08-20T00:24:14;99682.19;;;22.91;65.09
12963;BME280;6546;49.882;8.666;2022-08-20T00:26:42;99686.81;;;22.86;65.36
12963;BME280;6546;49.882;8.666;2022-08-20T00:29:09;99692.09;;;22.86;65.40
12963;BME280;6546;49.882;8.666;2022-08-20T00:31:35;99689.59;;;22.83;66.17
12963;BME280;6546;49.882;8.666;2022-08-20T00:34:02;99699.06;;;22.87;65.21
12963;BME280;6546;49.882;8.666;2022-08-20T00:36:29;99693.97;;;22.84;65.63
12963;BME280;6546;49.882;8.666;2022-08-20T00:38:55;99699.25;;;22.84;66.10
12963;BME280;6546;49.882;8.666;2022-08-20T00:41:25;99695.69;;;22.85;66.87
12963;BME280;6546;49.882;8.666;2022-08-20T00:44:05;99702.66;;;22.86;65.90
12963;BME280;6546;49.882;8.666;2022-08-20T00:46:33;99699.06;;;22.87;66.38
12963;BME280;6546;49.882;8.666;2022-08-20T00:49:00;99703.38;;;22.90;65.84
12963;BME280;6546;49.882;8.666;2022-08-20T00:51:34;99703.50;;;22.87;66.43
12963;BME280;6546;49.882;8.666;2022-08-20T00:54:06;99700.09;;;22.85;66.34
12963;BME280;6546;49.882;8.666;2022-08-20T00:56:36;99705.38;;;22.85;66.74
12963;BME280;6546;49.882;8.666;2022-08-20T00:59:08;99704.53;;;22.84;66.65
12963;BME280;6546;49.882;8.666;2022-08-20T01:01:36;99708.88;;;22.85;66.83
12963;BME280;6546;49.882;8.666;2022-08-20T01:04:04;99706.22;;;22.85;66.82
12963;BME280;6546;49.882;8.666;2022-08-20T01:06:31;99708.66;;;22.90;67.65
12963;BME280;6546;49.882;8.666;2022-08-20T01:08:58;99704.22;;;22.90;67.60
12963;BME280;6546;49.882;8.666;2022-08-20T01:11:26;99717.28;;;22.94;67.72
12963;BME280;6546;49.882;8.666;2022-08-20T01:13:57;99715.50;;;22.94;67.95
12963;BME280;6546;49.882;8.666;2022-08-20T01:16:29;99723.25;;;22.97;67.93
12963;BME280;6546;49.882;8.666;2022-08-20T01:18:58;99720.69;;;22.96;67.65
12963;BME280;6546;49.882;8.666;2022-08-20T01:21:26;99724.09;;;22.98;67.79
12963;BME280;6546;49.882;8.666;2022-08-20T01:23:58;99738.91;;;23.00;67.33
12963;BME280;6546;49.882;8.666;2022-08-20T01:26:29;99730.13;;;23.00;67.63
12963;BME280;6546;49.882;8.666;2022-08-20T01:29:00;99731.09;;;22.99;68.36
12963;BME280;6546;49.882;8.666;2022-08-20T01:31:30;99733.56;;;23.02;67.74
12963;BME280;6546;49.882;8.666;2022-08-20T01:33:58;99729.28;;;22.99;68.54
12963;BME280;6546;49.882;8.666;2022-08-20T01:36:29;99727.69;;;22.97;68.39
12963;BME280;6546;49.882;8.666;2022-08-20T01:38:56;99727.75;;;22.95;68.69
12963;BME280;6546;49.882;8.666;2022-08-20T01:41:32;99739.31;;;22.93;69.06
12963;BME280;6546;49.882;8.666;2022-08-20T01:44:00;99727.03;;;22.91;70.17
12963;BME280;6546;49.882;8.666;2022-08-20T01:46:29;99727.34;;;22.85;69.08
12963;BME280;6546;49.882;8.666;2022-08-20T01:48:58;99726.63;;;22.82;68.27
12963;BME280;6546;49.882;8.666;2022-08-20T01:51:28;99726.88;;;22.77;68.61
12963;BME280;6546;49.882;8.666;2022-08-20T01:53:57;99729.66;;;22.74;68.47
12963;BME280;6546;49.882;8.666;2022-08-20T01:56:27;99732.38;;;22.73;67.58
12963;BME280;6546;49.882;8.666;2022-08-20T01:58:58;99729.78;;;22.71;68.51
12963;BME280;6546;49.882;8.666;2022-08-20T02:01:26;99736.94;;;22.69;68.52
12963;BME280;6546;49.882;8.666;2022-08-20T02:03:54;99744.84;;;22.69;68.03
12963;BME280;6546;49.882;8.666;2022-08-20T02:06:27;99741.47;;;22.67;69.24
12963;BME280;6546;49.882;8.666;2022-08-20T02:08:55;99742.38;;;22.66;69.75
12963;BME280;6546;49.882;8.666;2022-08-20T02:11:22;99745.09;;;22.64;69.49
12963;BME280;6546;49.882;8.666;2022-08-20T02:13:50;99745.19;;;22.63;69.77
12963;BME280;6546;49.882;8.666;2022-08-20T02:16:20;99744.28;;;22.62;69.98
12963;BME280;6546;49.882;8.666;2022-08-20T02:18:48;99738.16;;;22.62;69.73
12963;BME280;6546;49.882;8.666;2022-08-20T02:21:19;99745.19;;;22.63;70.24
12963;BME280;6546;49.882;8.666;2022-08-20T02:23:46;99753.09;;;22.63;70.51
12963;BME280;6546;49.882;8.666;2022-08-20T02:26:12;99742.69;;;22.60;70.54
12963;BME280;6546;49.882;8.666;2022-08-20T02:28:43;99753.09;;;22.63;70.32
12963;BME280;6546;49.882;8.666;2022-08-20T02:31:14;99743.38;;;22.63;70.29
12963;BME280;6546;49.882;8.666;2022-08-20T02:33:43;99750.44;;;22.63;70.62
12963;BME280;6546;49.882;8.666;2022-08-20T02:36:10;99749.66;;;22.61;70.11
12963;BME280;6546;49.882;8.666;2022-08-20T02:38:37;99750.44;;;22.63;71.03
12963;BME280;6546;49.882;8.666;2022-08-20T02:41:04;99758.38;;;22.63;70.33
12963;BME280;6546;49.882;8.666;2022-08-20T02:43:31;99759.22;;;22.63;70.73
12963;BME280;6546;49.882;8.666;2022-08-20T02:45:58;99760.06;;;22.64;70.33
12963;BME280;6546;49.882;8.666;2022-08-20T02:48:26;99749.56;;;22.62;70.64
12963;BME280;6546;49.882;8.666;2022-08-20T02:50:56;99754.94;;;22.61;70.33
12963;BME280;6546;49.882;8.666;2022-08-20T02:53:25;99753.16;;;22.61;70.87
12963;BME280;6546;49.882;8.666;2022-08-20T02:55:53;99746.09;;;22.62;70.56
12963;BME280;6546;49.882;8.666;2022-08-20T02:58:21;99750.38;;;22.64;71.45
12963;BME280;6546;49.882;8.666;2022-08-20T03:00:48;99746.72;;;22.67;71.46
12963;BME280;6546;49.882;8.666;2022-08-20T03:03:16;99746.78;;;22.65;71.53
12963;BME280;6546;49.882;8.666;2022-08-20T03:05:47;99751.22;;;22.65;72.03
12963;BME280;6546;49.882;8.666;2022-08-20T03:08:16;99748.72;;;22.62;71.94
12963;BME280;6546;49.882;8.666;2022-08-20T03:10:44;99747.88;;;22.61;72.17
12963;BME280;6546;49.882;8.666;2022-08-20T03:13:12;99742.75;;;22.58;72.01
12963;BME280;6546;49.882;8.666;2022-08-20T03:15:40;99740.09;;;22.58;72.80
12963;BME280;6546;49.882;8.666;2022-08-20T03:18:10;99749.50;;;22.64;72.33
12963;BME280;6546;49.882;8.666;2022-08-20T03:20:37;99744.38;;;22.61;73.01
12963;BME280;6546;49.882;8.666;2022-08-20T03:23:04;99747.97;;;22.60;72.36
12963;BME280;6546;49.882;8.666;2022-08-20T03:25:32;99747.03;;;22.61;73.23
12963;BME280;6546;49.882;8.666;2022-08-20T03:27:59;99742.53;;;22.63;72.67
12963;BME280;6546;49.882;8.666;2022-08-20T03:30:28;99741.66;;;22.62;72.52
12963;BME280;6546;49.882;8.666;2022-08-20T03:32:54;99744.38;;;22.61;73.20
12963;BME280;6546;49.882;8.666;2022-08-20T03:35:22;99740.03;;;22.60;73.86
12963;BME280;6546;49.882;8.666;2022-08-20T03:37:49;99738.34;;;22.59;73.53
12963;BME280;6546;49.882;8.666;2022-08-20T03:40:19;99735.72;;;22.59;73.42
12963;BME280;6546;49.882;8.666;2022-08-20T03:42:47;99742.69;;;22.60;73.96
12963;BME280;6546;49.882;8.666;2022-08-20T03:45:13;99734.69;;;22.61;73.37
12963;BME280;6546;49.882;8.666;2022-08-20T03:47:40;99742.53;;;22.63;73.33
12963;BME280;6546;49.882;8.666;2022-08-20T03:50:09;99750.38;;;22.64;73.41
12963;BME280;6546;49.882;8.666;2022-08-20T03:52:36;99750.22;;;22.67;73.22
12963;BME280;6546;49.882;8.666;2022-08-20T03:55:04;99743.06;;;22.70;72.46
12963;BME280;6546;49.882;8.666;2022-08-20T03:57:31;99751.22;;;22.65;74.10
12963;BME280;6546;49.882;8.666;2022-08-20T03:59:59;99751.13;;;22.66;73.17
12963;BME280;6546;49.882;8.666;2022-08-20T04:02:26;99748.56;;;22.65;73.88
12963;BME280;6546;49.882;8.666;2022-08-20T04:04:53;99758.97;;;22.68;73.70
12963;BME280;6546;49.882;8.666;2022-08-20T04:07:23;99749.06;;;22.73;72.11
12963;BME280;6546;49.882;8.666;2022-08-20T04:09:51;99749.19;;;22.70;72.33
12963;BME280;6546;49.882;8.666;2022-08-20T04:12:18;99745.94;;;22.65;73.02
12963;BME280;6546;49.882;8.666;2022-08-20T04:14:44;99746.88;;;22.64;73.13
12963;BME280;6546;49.882;8.666;2022-08-20T04:17:12;99751.44;;;22.60;73.30
12963;BME280;6546;49.882;8.666;2022-08-20T04:19:40;99742.81;;;22.57;73.62
12963;BME280;6546;49.882;8.666;2022-08-20T04:22:07;99748.31;;;22.52;74.24
12963;BME280;6546;49.882;8.666;2022-08-20T04:24:34;99741.59;;;22.47;75.20
12963;BME280;6546;49.882;8.666;2022-08-20T04:27:02;99752.28;;;22.44;75.97
12963;BME280;6546;49.882;8.666;2022-08-20T04:29:30;99750.72;;;22.39;76.21
12963;BME280;6546;49.882;8.666;2022-08-20T04:31:57;99754.28;;;22.38;75.67
12963;BME280;6546;49.882;8.666;2022-08-20T04:34:26;99749.00;;;22.38;75.95
12963;BME280;6546;49.882;8.666;2022-08-20T04:36:53;99749.00;;;22.38;76.25
12963;BME280;6546;49.882;8.666;2022-08-20T04:39:19;99743.75;;;22.38;75.81
12963;BME280;6546;49.882;8.666;2022-08-20T04:41:46;99754.28;;;22.38;76.68
12963;BME280;6546;49.882;8.666;2022-08-20T04:44:13;99754.34;;;22.37;75.98
12963;BME280;6546;49.882;8.666;2022-08-20T04:46:39;99763.09;;;22.37;75.85
12963;BME280;6546;49.882;8.666;2022-08-20T04:49:09;99761.38;;;22.36;76.07
12963;BME280;6546;49.882;8.666;2022-08-20T04:51:37;99762.19;;;22.38;76.09
12963;BME280;6546;49.882;8.666;2022-08-20T04:54:04;99766.53;;;22.39;76.23
12963;BME280;6546;49.882;8.666;2022-08-20T04:56:33;99767.50;;;22.37;76.08
12963;BME280;6546;49.882;8.666;2022-08-20T04:59:03;99765.59;;;22.40;75.26
12963;BME280;6546;49.882;8.666;2022-08-20T05:01:30;99774.06;;;22.47;74.18
12963;BME280;6546;49.882;8.666;2022-08-20T05:03:57;99777.91;;;22.40;75.62
12963;BME280;6546;49.882;8.666;2022-08-20T05:06:26;99782.34;;;22.39;75.36
12963;BME280;6546;49.882;8.666;2022-08-20T05:08:56;99772.66;;;22.40;75.75
12963;BME280;6546;49.882;8.666;2022-08-20T05:11:23;99778.00;;;22.38;76.32
12963;BME280;6546;49.882;8.666;2022-08-20T05:13:50;99776.00;;;22.44;75.00
12963;BME280;6546;49.882;8.666;2022-08-20T05:16:17;99784.03;;;22.40;74.88
12963;BME280;6546;49.882;8.666;2022-08-20T05:18:44;99790.16;;;22.41;75.49
12963;BME280;6546;49.882;8.666;2022-08-20T05:21:11;99796.28;;;22.41;76.00
12963;BME280;6546;49.882;8.666;2022-08-20T05:23:38;99793.50;;;22.45;75.25
12963;BME280;6546;49.882;8.666;2022-08-20T05:26:09;99798.72;;;22.46;74.95
12963;BME280;6546;49.882;8.666;2022-08-20T05:28:38;99795.31;;;22.44;75.52
12963;BME280;6546;49.882;8.666;2022-08-20T05:31:05;99799.72;;;22.44;75.35
12963;BME280;6546;49.882;8.666;2022-08-20T05:33:34;99800.50;;;22.46;75.94
12963;BME280;6546;49.882;8.666;2022-08-20T05:36:02;99802.06;;;22.50;75.54
12963;BME280;6546;49.882;8.666;2022-08-20T05:38:30;99802.84;;;22.52;75.49
12963;BME280;6546;49.882;8.666;2022-08-20T05:40:59;99802.53;;;22.58;74.98
12963;BME280;6546;49.882;8.666;2022-08-20T05:43:27;99805.97;;;22.60;74.92
12963;BME280;6546;49.882;8.666;2022-08-20T05:45:56;99807.38;;;22.67;74.86
12963;BME280;6546;49.882;8.666;2022-08-20T05:48:23;99806.59;;;22.65;75.10
12963;BME280;6546;49.882;8.666;2022-08-20T05:50:51;99812.34;;;22.73;74.58
12963;BME280;6546;49.882;8.666;2022-08-20T05:53:19;99817.78;;;22.70;74.79
12963;BME280;6546;49.882;8.666;2022-08-20T05:55:46;99821.13;;;22.74;74.34
12963;BME280;6546;49.882;8.666;2022-08-20T05:58:15;99819.31;;;22.74;74.69
12963;BME280;6546;49.882;8.666;2022-08-20T06:00:44;99817.63;;;22.73;75.45
12963;BME280;6546;49.882;8.666;2022-08-20T06:03:11;99819.19;;;22.77;74.87
12963;BME280;6546;49.882;8.666;2022-08-20T06:05:55;99817.50;;;22.76;74.96
12963;BME280;6546;49.882;8.666;2022-08-20T06:08:22;99817.63;;;22.73;75.51
12963;BME280;6546;49.882;8.666;2022-08-20T06:10:49;99815.94;;;22.72;75.82
12963;BME280;6546;49.882;8.666;2022-08-20T06:13:15;99817.63;;;22.73;75.72
12963;BME280;6546;49.882;8.666;2022-08-20T06:15:46;99815.47;;;22.81;75.33
12963;BME280;6546;49.882;8.666;2022-08-20T06:18:13;99813.22;;;22.74;75.61
12963;BME280;6546;49.882;8.666;2022-08-20T06:20:40;99813.91;;;22.77;75.25
12963;BME280;6546;49.882;8.666;2022-08-20T06:23:07;99820.88;;;22.78;75.86
12963;BME280;6546;49.882;8.666;2022-08-20T06:25:34;99819.19;;;22.77;76.20
12963;BME280;6546;49.882;8.666;2022-08-20T06:28:01;99830.59;;;22.78;75.79
12963;BME280;6546;49.882;8.666;2022-08-20T06:30:28;99823.97;;;22.69;76.57
12963;BME280;6546;49.882;8.666;2022-08-20T06:32:57;99830.97;;;22.70;76.38
12963;BME280;6546;49.882;8.666;2022-08-20T06:35:24;99826.25;;;22.77;77.14
12963;BME280;6546;49.882;8.666;2022-08-20T06:37:50;99838.03;;;22.70;76.79
12963;BME280;6546;49.882;8.666;2022-08-20T06:40:19;99837.03;;;22.72;77.04
12963;BME280;6546;49.882;8.666;2022-08-20T06:42:47;99835.00;;;22.77;77.55
12963;BME280;6546;49.882;8.666;2022-08-20T06:45:16;99832.28;;;22.79;77.79
12963;BME280;6546;49.882;8.666;2022-08-20T06:47:44;99829.28;;;22.86;77.32
12963;BME280;6546;49.882;8.666;2022-08-20T06:50:17;99838.56;;;22.95;77.88
12963;BME280;6546;49.882;8.666;2022-08-20T06:52:44;99845.63;;;22.95;78.47
12963;BME280;6546;49.882;8.666;2022-08-20T06:55:12;99839.34;;;22.78;79.52
12963;BME280;6546;49.882;8.666;2022-08-20T06:57:39;99842.53;;;22.67;81.00
12963;BME280;6546;49.882;8.666;2022-08-20T07:00:09;99851.56;;;22.62;81.95
12963;BME280;6546;49.882;8.666;2022-08-20T07:02:36;99857.28;;;22.53;85.00
12963;BME280;6546;49.882;8.666;2022-08-20T07:05:04;99853.88;;;22.51;86.03
12963;BME280;6546;49.882;8.666;2022-08-20T07:07:33;99859.16;;;22.51;87.41
12963;BME280;6546;49.882;8.666;2022-08-20T07:09:59;99847.31;;;22.40;89.79
12963;BME280;6546;49.882;8.666;2022-08-20T07:12:26;99845.03;;;22.33;91.39
12963;BME280;6546;49.882;8.666;2022-08-20T07:14:53;99851.47;;;22.27;92.35
12963;BME280;6546;49.882;8.666;2022-08-20T07:17:20;99849.97;;;22.22;93.18
12963;BME280;6546;49.882;8.666;2022-08-20T07:19:46;99862.44;;;22.18;93.36
12963;BME280;6546;49.882;8.666;2022-08-20T07:22:13;99855.91;;;22.06;94.90
12963;BME280;6546;49.882;8.666;2022-08-20T07:24:41;99849.19;;;21.99;96.37
12963;BME280;6546;49.882;8.666;2022-08-20T07:27:08;99852.97;;;21.93;97.79
12963;BME280;6546;49.882;8.666;2022-08-20T07:29:35;99849.81;;;21.85;97.57
12963;BME280;6546;49.882;8.666;2022-08-20T07:32:15;99848.38;;;21.78;98.68
12963;BME280;6546;49.882;8.666;2022-08-20T07:35:02;99846.94;;;21.71;99.13
12963;BME280;6546;49.882;8.666;2022-08-20T07:37:28;99852.34;;;21.68;100.00
12963;BME280;6546;49.882;8.666;2022-08-20T07:39:56;99849.59;;;21.71;100.00
12963;BME280;6546;49.882;8.666;2022-08-20T07:42:23;99855.50;;;21.76;100.00
12963;BME280;6546;49.882;8.666;2022-08-20T07:44:50;99858.91;;;21.78;100.00
12963;BME280;6546;49.882;8.666;2022-08-20T07:47:17;99864.16;;;21.78;100.00
12963;BME280;6546;49.882;8.666;2022-08-20T07:49:44;99863.13;;;21.82;100.00
12963;BME280;6546;49.882;8.666;2022-08-20T07:52:10;99861.72;;;21.94;100.00
12963;BME280;6546;49.882;8.666;2022-08-20T07:54:37;99867.44;;;22.04;99.60
12963;BME280;6546;49.882;8.666;2022-08-20T07:57:05;99867.81;;;22.15;99.22
12963;BME280;6546;49.882;8.666;2022-08-20T07:59:34;99869.28;;;22.22;98.47
12963;BME280;6546;49.882;8.666;2022-08-20T08:02:00;99874.53;;;22.22;98.51
12963;BME280;6546;49.882;8.666;2022-08-20T08:04:27;99876.38;;;22.20;98.28
12963;BME280;6546;49.882;8.666;2022-08-20T08:06:54;99876.88;;;22.28;98.21
12963;BME280;6546;49.882;8.666;2022-08-20T08:09:25;99868.53;;;22.37;97.03
12963;BME280;6546;49.882;8.666;2022-08-20T08:11:52;99868.63;;;22.36;96.48
12963;BME280;6546;49.882;8.666;2022-08-20T08:14:25;99877.13;;;22.42;97.69
12963;BME280;6546;49.882;8.666;2022-08-20T08:16:55;99866.84;;;22.55;96.01
12963;BME280;6546;49.882;8.666;2022-08-20T08:19:27;99872.03;;;22.57;96.09
12963;BME280;6546;49.882;8.666;2022-08-20T08:21:58;99876.09;;;22.64;96.47
12963;BME280;6546;49.882;8.666;2022-08-20T08:24:25;99875.53;;;22.76;94.79
12963;BME280;6546;49.882;8.666;2022-08-20T08:26:51;99885.91;;;22.79;93.66
12963;BME280;6546;49.882;8.666;2022-08-20T08:29:19;99877.63;;;22.87;92.55
12963;BME280;6546;49.882;8.666;2022-08-20T08:31:47;99873.38;;;22.84;91.58
12963;BME280;6546;49.882;8.666;2022-08-20T08:34:13;99866.50;;;22.99;92.42
12963;BME280;6546;49.882;8.666;2022-08-20T08:36:40;99882.06;;;23.23;90.12
12963;BME280;6546;49.882;8.666;2022-08-20T08:39:08;99883.25;;;23.34;89.35
12963;BME280;6546;49.882;8.666;2022-08-20T08:41:39;99882.13;;;23.38;87.87
12963;BME280;6546;49.882;8.666;2022-08-20T08:44:15;99879.50;;;23.38;88.19
12963;BME280;6546;49.882;8.666;2022-08-20T08:46:51;99878.41;;;23.42;87.85
12963;BME280;6546;49.882;8.666;2022-08-20T08:49:24;99879.91;;;23.48;88.35
12963;BME280;6546;49.882;8.666;2022-08-20T08:51:55;99879.28;;;23.60;88.08
12963;BME280;6546;49.882;8.666;2022-08-20T08:54:26;99875.78;;;23.77;86.60
12963;BME280;6546;49.882;8.666;2022-08-20T08:56:56;99883.47;;;23.82;84.58
12963;BME280;6546;49.882;8.666;2022-08-20T08:59:26;99877.34;;;23.81;84.56
12963;BME280;6546;49.882;8.666;2022-08-20T09:02:03;99876.69;;;23.94;84.80
12963;BME280;6546;49.882;8.666;2022-08-20T09:04:34;99876.47;;;24.14;84.62
12963;BME280;6546;49.882;8.666;2022-08-20T09:07:02;99884.94;;;24.21;82.81
12963;BME280;6546;49.882;8.666;2022-08-20T09:09:41;99876.41;;;24.15;82.82
12963;BME280;6546;49.882;8.666;2022-08-20T09:12:10;99878.78;;;24.20;82.92
12963;BME280;6546;49.882;8.666;2022-08-20T09:14:37;99868.38;;;24.17;83.72
12963;BME280;6546;49.882;8.666;2022-08-20T09:17:06;99869.59;;;24.27;83.95
12963;BME280;6546;49.882;8.666;2022-08-20T09:19:32;99873.22;;;24.42;83.26
12963;BME280;6546;49.882;8.666;2022-08-20T09:22:06;99871.53;;;24.57;81.67
12963;BME280;6546;49.882;8.666;2022-08-20T09:24:32;99866.56;;;24.67;81.80
12963;BME280;6546;49.882;8.666;2022-08-20T09:26:59;99875.78;;;24.75;79.77
12963;BME280;6546;49.882;8.666;2022-08-20T09:29:25;99865.88;;;24.63;78.73
12963;BME280;6546;49.882;8.666;2022-08-20T09:32:03;99878.00;;;24.67;77.19
12963;BME280;6546;49.882;8.666;2022-08-20T09:34:34;99875.19;;;24.70;79.70
12963;BME280;6546;49.882;8.666;2022-08-20T09:37:00;99870.13;;;24.81;80.96
12963;BME280;6546;49.882;8.666;2022-08-20T09:39:27;99871.31;;;24.92;78.45
12963;BME280;6546;49.882;8.666;2022-08-20T09:41:53;99859.25;;;25.02;78.03
12963;BME280;6546;49.882;8.666;2022-08-20T09:44:20;99856.97;;;25.11;76.77
12963;BME280;6546;49.882;8.666;2022-08-20T09:46:46;99856.59;;;25.18;78.22
12963;BME280;6546;49.882;8.666;2022-08-20T09:49:13;99849.22;;;25.23;77.35
12963;BME280;6546;49.882;8.666;2022-08-20T09:51:41;99848.63;;;25.33;77.35
12963;BME280;6546;49.882;8.666;2022-08-20T09:54:07;99842.00;;;25.41;76.59
12963;BME280;6546;49.882;8.666;2022-08-20T09:56:34;99842.91;;;25.25;74.92
12963;BME280;6546;49.882;8.666;2022-08-20T09:59:01;99840.66;;;25.33;75.30
12963;BME280;6546;49.882;8.666;2022-08-20T10:01:27;99830.38;;;25.43;75.18
12963;BME280;6546;49.882;8.666;2022-08-20T10:03:54;99838.44;;;25.56;74.83
12963;BME280;6546;49.882;8.666;2022-08-20T10:06:20;99835.03;;;25.68;74.61
12963;BME280;6546;49.882;8.666;2022-08-20T10:08:49;99832.28;;;25.70;74.46
12963;BME280;6546;49.882;8.666;2022-08-20T10:11:16;99831.81;;;25.63;72.53
12963;BME280;6546;49.882;8.666;2022-08-20T10:13:43;99833.63;;;25.62;72.68
12963;BME280;6546;49.882;8.666;2022-08-20T10:16:09;99831.81;;;25.63;72.68
12963;BME280;6546;49.882;8.666;2022-08-20T10:18:36;99830.25;;;25.45;73.79
12963;BME280;6546;49.882;8.666;2022-08-20T10:21:08;99838.78;;;25.35;72.14
12963;BME280;6546;49.882;8.666;2022-08-20T10:23:34;99828.19;;;25.35;73.35
12963;BME280;6546;49.882;8.666;2022-08-20T10:26:02;99834.03;;;25.41;71.94
12963;BME280;6546;49.882;8.666;2022-08-20T10:28:29;99821.00;;;25.37;70.25
12963;BME280;6546;49.882;8.666;2022-08-20T10:30:55;99825.56;;;25.50;69.87
12963;BME280;6546;49.882;8.666;2022-08-20T10:33:22;99823.88;;;25.63;69.16
12963;BME280;6546;49.882;8.666;2022-08-20T10:35:48;99824.56;;;25.81;66.17
12963;BME280;6546;49.882;8.666;2022-08-20T10:38:15;99820.88;;;25.98;63.91
12963;BME280;6546;49.882;8.666;2022-08-20T10:40:41;99822.75;;;26.10;63.65
12963;BME280;6546;49.882;8.666;2022-08-20T10:43:10;99820.47;;;26.18;62.79
12963;BME280;6546;49.882;8.666;2022-08-20T10:45:37;99829.94;;;26.08;64.51
12963;BME280;6546;49.882;8.666;2022-08-20T10:48:03;99823.06;;;26.05;63.82
12963;BME280;6546;49.882;8.666;2022-08-20T10:50:31;99827.88;;;25.99;64.11
12963;BME280;6546;49.882;8.666;2022-08-20T10:52:58;99818.78;;;26.03;64.94
12963;BME280;6546;49.882;8.666;2022-08-20T10:55:25;99819.63;;;26.18;63.32
12963;BME280;6546;49.882;8.666;2022-08-20T10:57:51;99821.31;;;26.19;61.54
12963;BME280;6546;49.882;8.666;2022-08-20T11:00:19;99820.28;;;26.07;63.45
12963;BME280;6546;49.882;8.666;2022-08-20T11:02:46;99822.00;;;25.94;65.41
12963;BME280;6546;49.882;8.666;2022-08-20T11:05:13;99818.75;;;25.74;63.82
12963;BME280;6546;49.882;8.666;2022-08-20T11:07:42;99820.94;;;25.68;64.70
12963;BME280;6546;49.882;8.666;2022-08-20T11:10:09;99816.50;;;25.68;64.98
12963;BME280;6546;49.882;8.666;2022-08-20T11:12:36;99816.31;;;25.71;64.37
12963;BME280;6546;49.882;8.666;2022-08-20T11:15:04;99821.81;;;25.82;62.59
12963;BME280;6546;49.882;8.666;2022-08-20T11:17:34;99816.50;;;25.82;61.02
12963;BME280;6546;49.882;8.666;2022-08-20T11:20:02;99815.97;;;25.92;60.98
12963;BME280;6546;49.882;8.666;2022-08-20T11:22:29;99808.72;;;26.22;59.33
12963;BME280;6546;49.882;8.666;2022-08-20T11:24:56;99807.72;;;26.37;57.95
12963;BME280;6546;49.882;8.666;2022-08-20T11:27:25;99807.53;;;26.41;57.95
12963;BME280;6546;49.882;8.666;2022-08-20T11:29:52;99799.41;;;26.29;57.44
12963;BME280;6546;49.882;8.666;2022-08-20T11:32:20;99811.75;;;26.30;56.34
12963;BME280;6546;49.882;8.666;2022-08-20T11:34:48;99803.56;;;26.33;57.68
12963;BME280;6546;49.882;8.666;2022-08-20T11:37:16;99796.56;;;26.32;55.59
12963;BME280;6546;49.882;8.666;2022-08-20T11:39:43;99781.84;;;26.55;55.45
12963;BME280;6546;49.882;8.666;2022-08-20T11:42:09;99787.56;;;26.76;53.48
12963;BME280;6546;49.882;8.666;2022-08-20T11:44:36;99792.44;;;26.82;54.62
12963;BME280;6546;49.882;8.666;2022-08-20T11:47:05;99784.81;;;26.91;52.93
12963;BME280;6546;49.882;8.666;2022-08-20T11:49:34;99783.81;;;27.06;52.64
12963;BME280;6546;49.882;8.666;2022-08-20T11:52:03;99794.03;;;27.12;52.76
12963;BME280;6546;49.882;8.666;2022-08-20T11:54:30;99790.97;;;27.18;52.11
12963;BME280;6546;49.882;8.666;2022-08-20T11:56:58;99779.38;;;27.19;50.71
12963;BME280;6546;49.882;8.666;2022-08-20T11:59:25;99783.41;;;27.12;49.95
12963;BME280;6546;49.882;8.666;2022-08-20T12:01:52;99785.88;;;27.01;49.91
12963;BME280;6546;49.882;8.666;2022-08-20T12:04:20;99777.88;;;27.15;50.41
12963;BME280;6546;49.882;8.666;2022-08-20T12:06:46;99782.13;;;27.30;50.18
12963;BME280;6546;49.882;8.666;2022-08-20T12:09:14;99776.72;;;27.45;49.69
12963;BME280;6546;49.882;8.666;2022-08-20T12:11:41;99782.78;;;27.47;48.92
12963;BME280;6546;49.882;8.666;2022-08-20T12:14:08;99784.72;;;27.45;48.92
12963;BME280;6546;49.882;8.666;2022-08-20T12:16:35;99789.16;;;27.57;47.48
12963;BME280;6546;49.882;8.666;2022-08-20T12:19:02;99781.94;;;27.59;48.82
12963;BME280;6546;49.882;8.666;2022-08-20T12:21:28;99789.56;;;27.64;47.81
12963;BME280;6546;49.882;8.666;2022-08-20T12:23:55;99779.59;;;27.67;46.14
12963;BME280;6546;49.882;8.666;2022-08-20T12:26:23;99781.72;;;27.62;47.65
12963;BME280;6546;49.882;8.666;2022-08-20T12:28:49;99774.38;;;27.66;47.32
12963;BME280;6546;49.882;8.666;2022-08-20T12:31:16;99770.97;;;27.64;46.51
12963;BME280;6546;49.882;8.666;2022-08-20T12:33:42;99765.78;;;27.62;47.15
12963;BME280;6546;49.882;8.666;2022-08-20T12:36:09;99760.91;;;27.56;47.19
12963;BME280;6546;49.882;8.666;2022-08-20T12:38:36;99768.13;;;27.54;48.16
12963;BME280;6546;49.882;8.666;2022-08-20T12:41:02;99758.78;;;27.48;48.03
12963;BME280;6546;49.882;8.666;2022-08-20T12:43:31;99765.03;;;27.47;47.58
12963;BME280;6546;49.882;8.666;2022-08-20T12:45:57;99759.94;;;27.44;48.03
12963;BME280;6546;49.882;8.666;2022-08-20T12:48:24;99761.97;;;27.41;48.91
12963;BME280;6546;49.882;8.666;2022-08-20T12:50:50;99749.00;;;27.49;49.29
12963;BME280;6546;49.882;8.666;2022-08-20T12:53:17;99756.44;;;27.56;47.81
12963;BME280;6546;49.882;8.666;2022-08-20T12:55:44;99754.94;;;27.52;47.98
12963;BME280;6546;49.882;8.666;2022-08-20T12:58:11;99761.50;;;27.59;48.23
12963;BME280;6546;49.882;8.666;2022-08-20T13:00:41;99755.47;;;27.57;48.50
12963;BME280;6546;49.882;8.666;2022-08-20T13:03:10;99755.66;;;27.67;46.87
12963;BME280;6546;49.882;8.666;2022-08-20T13:05:38;99763.44;;;27.70;47.65
12963;BME280;6546;49.882;8.666;2022-08-20T13:08:05;99763.63;;;27.67;48.06
12963;BME280;6546;49.882;8.666;2022-08-20T13:10:35;99762.47;;;27.71;46.88
12963;BME280;6546;49.882;8.666;2022-08-20T13:13:02;99762.91;;;27.65;47.20
12963;BME280;6546;49.882;8.666;2022-08-20T13:15:29;99765.56;;;27.65;47.53